createdAt,value
2023-03-13T00:00:53.019Z,52.87
2023-03-13T00:02:54.727Z,52.72
2023-03-13T00:04:56.378Z,52.71
2023-03-13T00:06:59.431Z,52.82
2023-03-13T00:09:02.362Z,52.83
2023-03-13T00:11:05.220Z,52.72
2023-03-13T00:13:09.698Z,52.68
2023-03-13T00:15:11.779Z,52.65
2023-03-13T00:17:13.419Z,52.54
2023-03-13T00:19:15.702Z,52.70
2023-03-13T00:21:18.723Z,52.78
2023-03-13T00:23:21.687Z,52.70
2023-03-13T00:25:23.271Z,52.62
2023-03-13T00:27:24.870Z,52.75
2023-03-13T00:29:26.505Z,52.60
2023-03-13T00:31:30.197Z,52.57
2023-03-13T00:33:32.937Z,52.64
2023-03-13T00:35:36.243Z,52.58
2023-03-13T00:37:37.969Z,52.71
2023-03-13T00:39:40.913Z,52.60
2023-03-13T00:41:42.538Z,52.61
2023-03-13T00:43:45.295Z,52.67
2023-03-13T00:45:46.916Z,52.58
2023-03-13T00:47:48.583Z,52.73
2023-03-13T00:49:50.214Z,52.50
2023-03-13T00:51:51.820Z,52.33
2023-03-13T00:53:53.895Z,52.52
2023-03-13T00:55:58.777Z,52.49
2023-03-13T00:58:00.491Z,52.58
2023-03-13T01:00:02.135Z,52.42
2023-03-13T01:02:03.842Z,52.45
2023-03-13T01:04:07.278Z,52.35
2023-03-13T01:06:11.401Z,52.39
2023-03-13T01:08:13.113Z,52.37
2023-03-13T01:10:14.796Z,52.20
2023-03-13T01:12:17.768Z,52.44
2023-03-13T01:14:20.518Z,52.26
2023-03-13T01:16:22.845Z,52.35
2023-03-13T01:18:24.485Z,52.13
2023-03-13T01:20:26.063Z,52.16
2023-03-13T01:22:27.648Z,52.30
2023-03-13T01:24:29.228Z,52.24
2023-03-13T01:26:30.902Z,52.13
2023-03-13T01:28:35.045Z,52.31
2023-03-13T01:30:36.713Z,52.41
2023-03-13T01:32:38.536Z,52.33
2023-03-13T01:34:40.124Z,52.25
2023-03-13T01:36:41.852Z,52.14
2023-03-13T01:38:43.818Z,52.27
2023-03-13T01:40:47.514Z,52.32
2023-03-13T01:42:50.900Z,52.53
2023-03-13T01:44:55.646Z,52.42
2023-03-13T01:46:57.224Z,52.59
2023-03-13T01:49:03.074Z,52.62
2023-03-13T01:51:08.340Z,52.88
2023-03-13T01:53:10.695Z,53.18
2023-03-13T01:55:16.658Z,53.11
2023-03-13T01:57:25.601Z,53.21
2023-03-13T01:59:30.343Z,53.29
2023-03-13T02:01:33.569Z,53.52
2023-03-13T02:03:37.210Z,53.58
2023-03-13T02:05:40.774Z,53.72
2023-03-13T02:07:47.464Z,53.84
2023-03-13T02:09:52.513Z,53.84
2023-03-13T02:12:01.173Z,54.11
2023-03-13T02:14:04.628Z,54.44
2023-03-13T02:16:07.603Z,54.98
2023-03-13T02:18:11.407Z,55.25
2023-03-13T02:20:15.540Z,55.44
2023-03-13T02:22:23.167Z,55.50
2023-03-13T02:24:32.208Z,55.11
2023-03-13T02:26:37.490Z,55.23
2023-03-13T02:28:39.327Z,55.35
2023-03-13T02:30:43.294Z,55.42
2023-03-13T02:32:46.298Z,55.58
2023-03-13T02:34:51.617Z,55.47
2023-03-13T02:36:53.496Z,55.58
2023-03-13T02:38:58.823Z,55.39
2023-03-13T02:41:02.727Z,55.53
2023-03-13T02:43:09.372Z,55.73
2023-03-13T02:45:14.272Z,55.50
2023-03-13T02:47:19.252Z,55.68
2023-03-13T02:49:24.066Z,55.45
2023-03-13T02:51:29.684Z,55.46
2023-03-13T02:53:33.426Z,55.48
2023-03-13T02:55:39.477Z,55.32
2023-03-13T02:57:41.115Z,55.49
2023-03-13T02:59:44.144Z,55.69
2023-03-13T03:01:45.988Z,56.26
2023-03-13T03:03:47.715Z,55.79
2023-03-13T03:05:49.295Z,56.62
2023-03-13T03:07:51.676Z,56.59
2023-03-13T03:09:53.305Z,56.42
2023-03-13T03:11:54.934Z,56.25
2023-03-13T03:13:56.507Z,56.28
2023-03-13T03:15:59.676Z,56.51
2023-03-13T03:18:01.351Z,56.22
2023-03-13T03:20:03.320Z,56.14
2023-03-13T03:22:04.934Z,56.25
2023-03-13T03:24:07.375Z,56.33
2023-03-13T03:26:09.131Z,56.35
2023-03-13T03:28:10.741Z,56.15
2023-03-13T03:30:12.804Z,56.43
2023-03-13T03:32:16.009Z,56.22
2023-03-13T03:34:17.645Z,56.32
2023-03-13T03:36:21.761Z,56.77
2023-03-13T03:38:23.329Z,56.87
2023-03-13T03:40:24.931Z,57.38
2023-03-13T03:42:26.479Z,57.69
2023-03-13T03:44:27.982Z,57.83
2023-03-13T03:46:29.667Z,58.14
2023-03-13T03:48:32.810Z,58.61
2023-03-13T03:50:40.477Z,58.85
2023-03-13T03:52:42.049Z,59.23
2023-03-13T03:54:43.928Z,59.58
2023-03-13T03:56:45.580Z,59.97
2023-03-13T03:58:47.155Z,60.03
2023-03-13T04:00:49.375Z,60.26
2023-03-13T04:02:51.014Z,60.10
2023-03-13T04:04:54.170Z,60.12
2023-03-13T04:06:55.757Z,60.34
2023-03-13T04:08:57.509Z,60.32
2023-03-13T04:11:00.850Z,60.52
2023-03-13T04:13:02.413Z,60.39
2023-03-13T04:15:04.599Z,61.20
2023-03-13T04:17:06.247Z,61.09
2023-03-13T04:19:07.961Z,61.93
2023-03-13T04:21:10.950Z,62.20
2023-03-13T04:23:12.751Z,62.60
2023-03-13T04:25:14.362Z,63.14
2023-03-13T04:27:16.023Z,63.71
2023-03-13T04:29:17.604Z,64.10
2023-03-13T04:31:19.222Z,64.06
2023-03-13T04:33:20.868Z,64.65
2023-03-13T04:35:22.740Z,64.68
2023-03-13T04:37:25.688Z,64.88
2023-03-13T04:39:27.208Z,65.10
2023-03-13T04:41:28.806Z,65.24
2023-03-13T04:43:30.486Z,65.37
2023-03-13T04:45:32.051Z,65.49
2023-03-13T04:47:33.706Z,65.33
2023-03-13T04:49:35.303Z,65.40
2023-03-13T04:51:36.990Z,65.32
2023-03-13T04:53:40.280Z,65.70
2023-03-13T04:55:42.419Z,65.53
2023-03-13T04:57:43.966Z,65.57
2023-03-13T04:59:45.574Z,65.65
2023-03-13T05:01:47.449Z,65.47
2023-03-13T05:03:51.347Z,65.71
2023-03-13T05:05:53.044Z,65.96
2023-03-13T05:07:54.680Z,66.07
2023-03-13T05:09:57.793Z,65.80
2023-03-13T05:11:59.430Z,65.40
2023-03-13T05:14:01.115Z,65.51
2023-03-13T05:16:03.446Z,65.24
2023-03-13T05:18:05.432Z,65.63
2023-03-13T05:20:08.231Z,65.47
2023-03-13T05:22:10.298Z,65.48
2023-03-13T05:24:11.938Z,65.53
2023-03-13T05:26:14.870Z,65.19
2023-03-13T05:28:16.467Z,64.97
2023-03-13T05:30:18.135Z,65.06
2023-03-13T05:32:19.790Z,65.05
2023-03-13T05:34:21.398Z,64.97
2023-03-13T05:36:23.043Z,65.32
2023-03-13T05:38:27.708Z,65.29
2023-03-13T05:40:29.355Z,64.95
2023-03-13T05:42:32.311Z,64.84
2023-03-13T05:44:33.897Z,65.35
2023-03-13T05:46:35.589Z,65.28
2023-03-13T05:48:37.489Z,65.14
2023-03-13T05:50:39.095Z,65.29
2023-03-13T05:52:40.678Z,65.42
2023-03-13T05:54:42.283Z,65.10
2023-03-13T05:56:43.898Z,64.95
2023-03-13T05:58:46.869Z,64.98
2023-03-13T06:00:48.525Z,64.66
2023-03-13T06:02:50.218Z,64.84
2023-03-13T06:04:52.087Z,64.81
2023-03-13T06:06:53.906Z,64.56
2023-03-13T06:08:55.437Z,64.67
2023-03-13T06:10:59.397Z,64.82
2023-03-13T06:13:13.739Z,64.84
2023-03-13T06:15:21.808Z,65.34
2023-03-13T06:17:23.398Z,65.46
2023-03-13T06:19:25.020Z,65.35
2023-03-13T06:21:26.592Z,65.30
2023-03-13T06:23:28.830Z,65.55
2023-03-13T06:25:30.417Z,65.54
2023-03-13T06:27:32.011Z,65.43
2023-03-13T06:29:33.588Z,65.52
2023-03-13T06:31:36.895Z,65.50
2023-03-13T06:33:38.518Z,65.33
2023-03-13T06:35:54.808Z,65.26
2023-03-13T06:37:57.766Z,65.31
2023-03-13T06:39:59.469Z,65.32
2023-03-13T06:42:01.031Z,65.53
2023-03-13T06:44:02.908Z,66.04
2023-03-13T06:46:05.064Z,65.85
2023-03-13T06:48:08.068Z,66.10
2023-03-13T06:50:10.883Z,65.80
2023-03-13T06:52:12.424Z,66.19
2023-03-13T06:54:14.097Z,66.29
2023-03-13T06:56:15.673Z,65.93
2023-03-13T06:58:30.993Z,66.25
2023-03-13T07:00:33.866Z,66.50
2023-03-13T07:02:35.514Z,66.79
2023-03-13T07:04:38.681Z,66.87
2023-03-13T07:06:40.591Z,67.60
2023-03-13T07:08:42.618Z,67.13
2023-03-13T07:10:44.216Z,67.70
2023-03-13T07:12:45.803Z,67.84
2023-03-13T07:14:47.369Z,67.61
2023-03-13T07:16:49.065Z,67.30
2023-03-13T07:18:51.221Z,68.32
2023-03-13T07:20:55.475Z,68.07
2023-03-13T07:22:56.986Z,68.09
2023-03-13T07:24:58.480Z,68.20
2023-03-13T07:27:07.161Z,67.82
2023-03-13T07:29:08.878Z,67.78
2023-03-13T07:31:13.224Z,67.79
2023-03-13T07:33:14.962Z,67.31
2023-03-13T07:35:16.774Z,67.70
2023-03-13T07:37:19.676Z,68.03
2023-03-13T07:39:21.296Z,68.24
2023-03-13T07:41:22.964Z,68.13
2023-03-13T07:43:25.834Z,68.16
2023-03-13T07:45:27.408Z,67.96
2023-03-13T07:47:28.965Z,68.27
2023-03-13T07:49:31.243Z,67.98
2023-03-13T07:51:42.939Z,68.10
2023-03-13T07:53:47.294Z,68.10
2023-03-13T07:55:56.348Z,68.10
2023-03-13T07:57:57.910Z,68.08
2023-03-13T07:59:59.521Z,67.80
2023-03-13T08:02:01.723Z,67.83
2023-03-13T08:04:03.564Z,67.67
2023-03-13T08:06:06.999Z,67.72
2023-03-13T08:08:08.955Z,67.66
2023-03-13T08:10:12.095Z,67.70
2023-03-13T08:12:13.712Z,67.47
2023-03-13T08:14:15.302Z,67.39
2023-03-13T08:16:18.926Z,67.70
2023-03-13T08:18:20.472Z,67.51
2023-03-13T08:20:22.189Z,67.43
2023-03-13T08:22:23.869Z,67.46
2023-03-13T08:24:25.360Z,67.30
2023-03-13T08:26:29.585Z,67.08
2023-03-13T08:28:31.207Z,67.21
2023-03-13T08:30:32.822Z,66.97
2023-03-13T08:32:34.930Z,66.91
2023-03-13T08:34:36.527Z,66.80
2023-03-13T08:36:38.829Z,66.21
2023-03-13T08:38:41.331Z,66.17
2023-03-13T08:40:42.868Z,65.78
2023-03-13T08:42:45.792Z,65.64
2023-03-13T08:44:47.391Z,65.59
2023-03-13T08:46:49.074Z,65.73
2023-03-13T08:48:50.976Z,65.29
2023-03-13T08:51:03.398Z,64.87
2023-03-13T08:53:04.996Z,64.56
2023-03-13T08:55:07.819Z,64.56
2023-03-13T08:57:09.347Z,64.38
2023-03-13T08:59:12.502Z,64.03
2023-03-13T09:01:14.836Z,63.81
2023-03-13T09:03:16.443Z,64.08
2023-03-13T09:05:18.065Z,64.44
2023-03-13T09:07:19.559Z,64.34
2023-03-13T09:09:22.024Z,64.49
2023-03-13T09:11:25.606Z,64.75
2023-03-13T09:13:29.660Z,64.70
2023-03-13T09:15:34.943Z,64.36
2023-03-13T09:17:36.581Z,64.47
2023-03-13T09:19:43.311Z,64.35
2023-03-13T09:21:49.322Z,64.24
2023-03-13T09:23:51.841Z,64.41
2023-03-13T09:25:55.420Z,64.17
2023-03-13T09:27:56.945Z,64.51
2023-03-13T09:29:58.655Z,64.10
2023-03-13T09:32:01.596Z,64.05
2023-03-13T09:34:03.765Z,63.91
2023-03-13T09:36:05.959Z,63.55
2023-03-13T09:38:07.978Z,63.84
2023-03-13T09:40:15.563Z,64.06
2023-03-13T09:42:20.636Z,64.27
2023-03-13T09:44:26.707Z,64.09
2023-03-13T09:46:34.173Z,63.81
2023-03-13T09:48:41.315Z,63.82
2023-03-13T09:50:47.476Z,63.50
2023-03-13T09:52:52.603Z,63.52
2023-03-13T09:54:58.879Z,63.54
2023-03-13T09:57:07.409Z,63.69
2023-03-13T09:59:19.432Z,63.32
2023-03-13T10:01:26.271Z,63.65
2023-03-13T10:03:30.370Z,63.33
2023-03-13T10:05:34.057Z,62.80
2023-03-13T10:07:36.583Z,62.64
2023-03-13T10:09:38.607Z,62.91
2023-03-13T10:11:47.629Z,63.26
2023-03-13T10:13:55.574Z,63.58
2023-03-13T10:16:01.214Z,62.79
2023-03-13T10:18:13.983Z,62.64
2023-03-13T10:20:22.858Z,62.40
2023-03-13T10:22:28.721Z,62.69
2023-03-13T10:24:35.413Z,62.27
2023-03-13T10:26:37.887Z,62.67
2023-03-13T10:28:39.448Z,61.49
2023-03-13T10:30:46.301Z,61.79
2023-03-13T10:32:48.009Z,61.94
2023-03-13T10:34:52.995Z,61.86
2023-03-13T10:36:58.427Z,61.81
2023-03-13T10:39:01.560Z,61.08
2023-03-13T10:41:18.099Z,61.30
2023-03-13T10:43:22.587Z,61.16
2023-03-13T10:45:25.508Z,61.56
2023-03-13T10:47:32.704Z,61.23
2023-03-13T10:49:46.150Z,60.88
2023-03-13T10:51:49.829Z,60.83
2023-03-13T10:53:51.704Z,60.67
2023-03-13T10:55:57.691Z,60.45
2023-03-13T10:58:01.504Z,60.70
2023-03-13T11:00:23.288Z,60.51
2023-03-13T11:02:28.477Z,60.69
2023-03-13T11:04:32.920Z,60.51
2023-03-13T11:06:35.312Z,60.36
2023-03-13T11:08:37.378Z,60.01
2023-03-13T11:10:51.999Z,59.88
2023-03-13T11:12:56.854Z,60.35
2023-03-13T11:14:59.962Z,59.80
2023-03-13T11:17:09.960Z,60.18
2023-03-13T11:19:39.355Z,59.31
2023-03-13T11:21:49.380Z,58.94
2023-03-13T11:23:58.394Z,59.34
2023-03-13T11:26:10.311Z,58.25
2023-03-13T11:28:34.466Z,58.33
2023-03-13T11:30:59.731Z,58.29
2023-03-13T11:33:04.592Z,57.83
2023-03-13T11:35:20.070Z,58.42
2023-03-13T11:37:22.992Z,58.18
2023-03-13T11:39:40.762Z,58.37
2023-03-13T11:41:53.053Z,58.32
2023-03-13T11:44:08.330Z,58.01
2023-03-13T11:46:22.930Z,57.53
2023-03-13T11:48:47.088Z,57.55
2023-03-13T11:50:54.946Z,57.79
2023-03-13T11:53:09.625Z,58.21
2023-03-13T11:55:29.587Z,58.54
2023-03-13T11:57:34.783Z,58.30
2023-03-13T11:59:45.600Z,58.35
2023-03-13T12:01:51.229Z,57.07
2023-03-13T12:03:58.647Z,54.62
2023-03-13T12:06:00.868Z,53.89
2023-03-13T12:08:07.412Z,54.43
2023-03-13T12:10:13.192Z,53.42
2023-03-13T12:12:22.613Z,51.42
2023-03-13T12:14:27.718Z,51.41
2023-03-13T12:16:49.621Z,48.94
2023-03-13T12:18:53.039Z,46.63
2023-03-13T12:21:01.772Z,46.54
2023-03-13T12:23:16.668Z,44.46
2023-03-13T12:25:23.641Z,44.56
2023-03-13T12:27:31.118Z,44.33
2023-03-13T12:29:44.984Z,43.79
2023-03-13T12:31:53.489Z,43.67
2023-03-13T12:33:59.893Z,44.27
2023-03-13T12:36:06.683Z,44.69
2023-03-13T12:38:14.825Z,45.32
2023-03-13T12:40:26.115Z,45.89
2023-03-13T12:42:38.404Z,46.51
2023-03-13T12:44:40.630Z,47.42
2023-03-13T12:46:46.477Z,47.15
2023-03-13T12:49:13.102Z,46.83
2023-03-13T12:51:32.540Z,47.05
2023-03-13T12:54:07.886Z,47.40
2023-03-13T12:56:33.743Z,47.19
2023-03-13T12:58:44.139Z,48.22
2023-03-13T13:00:47.840Z,48.10
2023-03-13T13:03:04.401Z,48.79
2023-03-13T13:05:19.227Z,48.76
2023-03-13T13:07:24.536Z,48.84
2023-03-13T13:09:27.777Z,48.89
2023-03-13T13:11:54.488Z,47.17
2023-03-13T13:13:56.079Z,47.67
2023-03-13T13:16:04.849Z,47.79
2023-03-13T13:18:16.242Z,47.63
2023-03-13T13:20:47.526Z,47.58
2023-03-13T13:22:52.364Z,48.22
2023-03-13T13:24:55.914Z,48.51
2023-03-13T13:26:57.593Z,48.28
2023-03-13T13:29:00.466Z,47.47
2023-03-13T13:31:02.413Z,47.67
2023-03-13T13:33:34.716Z,47.40
2023-03-13T13:35:36.940Z,46.91
2023-03-13T13:37:40.710Z,47.44
2023-03-13T13:39:44.838Z,47.27
2023-03-13T13:41:46.470Z,47.24
2023-03-13T13:43:49.863Z,47.59
2023-03-13T13:46:00.922Z,47.76
2023-03-13T13:48:25.512Z,48.89
2023-03-13T13:50:28.493Z,47.42
2023-03-13T13:52:35.957Z,47.07
2023-03-13T13:54:55.323Z,46.52
2023-03-13T13:56:59.216Z,46.66
2023-03-13T13:59:05.798Z,46.76
2023-03-13T14:01:16.214Z,46.90
2023-03-13T14:03:22.903Z,47.19
2023-03-13T14:05:26.556Z,46.54
2023-03-13T14:07:32.165Z,46.22
2023-03-13T14:09:42.944Z,46.43
2023-03-13T14:11:45.975Z,46.66
2023-03-13T14:14:08.906Z,46.04
2023-03-13T14:16:25.116Z,46.24
2023-03-13T14:18:28.473Z,45.73
2023-03-13T14:20:33.502Z,45.79
2023-03-13T14:22:45.606Z,45.76
2023-03-13T14:24:57.425Z,46.21
2023-03-13T14:27:01.089Z,45.65
2023-03-13T14:29:03.821Z,45.86
2023-03-13T14:31:06.868Z,46.21
2023-03-13T14:33:08.440Z,46.43
2023-03-13T14:37:34.974Z,45.93
2023-03-13T14:39:37.973Z,46.46
2023-03-13T14:41:45.100Z,46.37
2023-03-13T14:43:48.164Z,45.82
2023-03-13T14:45:50.609Z,46.24
2023-03-13T14:47:53.271Z,46.16
2023-03-13T14:50:00.312Z,45.63
2023-03-13T14:52:04.510Z,45.80
2023-03-13T14:54:23.661Z,45.75
2023-03-13T14:56:36.677Z,45.77
2023-03-13T14:58:38.638Z,46.37
2023-03-13T15:00:44.014Z,45.95
2023-03-13T15:02:45.604Z,46.37
2023-03-13T15:04:52.696Z,45.78
2023-03-13T15:07:02.791Z,45.12
2023-03-13T15:09:15.457Z,45.21
2023-03-13T15:11:35.079Z,45.02
2023-03-13T15:13:37.022Z,45.30
2023-03-13T15:15:38.687Z,45.29
2023-03-13T15:17:41.700Z,45.74
2023-03-13T15:19:47.743Z,45.49
2023-03-13T15:23:55.509Z,45.26
2023-03-13T15:25:57.047Z,45.38
2023-03-13T15:27:58.701Z,45.12
2023-03-13T15:30:00.361Z,45.12
2023-03-13T15:32:01.992Z,45.07
2023-03-13T15:34:10.636Z,45.86
2023-03-13T15:36:12.317Z,46.05
2023-03-13T15:38:16.047Z,46.33
2023-03-13T15:40:18.606Z,45.87
2023-03-13T15:42:20.580Z,44.67
2023-03-13T15:44:22.114Z,43.47
2023-03-13T15:46:25.381Z,44.22
2023-03-13T15:48:29.317Z,44.63
2023-03-13T15:50:35.265Z,43.70
2023-03-13T15:52:36.800Z,43.56
2023-03-13T15:54:38.417Z,43.70
2023-03-13T15:56:40.100Z,43.76
2023-03-13T15:58:41.778Z,43.59
2023-03-13T16:00:44.560Z,42.98
2023-03-13T16:02:46.162Z,40.28
2023-03-13T16:04:48.244Z,40.38
2023-03-13T16:06:51.373Z,41.10
2023-03-13T16:08:52.959Z,41.47
2023-03-13T16:10:55.119Z,40.52
2023-03-13T16:12:57.080Z,40.31
2023-03-13T16:14:58.633Z,41.41
2023-03-13T16:17:00.975Z,41.39
2023-03-13T16:19:02.599Z,41.72
2023-03-13T16:21:04.646Z,41.90
2023-03-13T16:23:07.576Z,41.90
2023-03-13T16:25:09.994Z,41.87
2023-03-13T16:27:14.342Z,42.56
2023-03-13T16:29:16.834Z,43.47
2023-03-13T16:31:20.972Z,43.73
2023-03-13T16:33:22.616Z,43.92
2023-03-13T16:35:25.896Z,44.08
2023-03-13T16:37:27.506Z,44.62
2023-03-13T16:39:30.475Z,45.20
2023-03-13T16:41:32.546Z,45.79
2023-03-13T16:43:34.120Z,46.12
2023-03-13T16:45:35.711Z,46.34
2023-03-13T16:47:37.644Z,46.45
2023-03-13T16:49:39.242Z,46.55
2023-03-13T16:51:41.428Z,47.42
2023-03-13T16:53:43.677Z,47.88
2023-03-13T16:55:46.676Z,48.52
2023-03-13T16:57:48.509Z,50.61
2023-03-13T16:59:50.114Z,51.07
2023-03-13T17:01:51.686Z,53.34
2023-03-13T17:03:53.241Z,52.69
2023-03-13T17:05:55.163Z,53.73
2023-03-13T17:07:56.966Z,53.76
2023-03-13T17:09:58.747Z,54.20
2023-03-13T17:12:01.804Z,54.83
2023-03-13T17:14:03.408Z,55.21
2023-03-13T17:16:12.110Z,56.14
2023-03-13T17:18:13.941Z,57.15
2023-03-13T17:20:16.185Z,58.04
2023-03-13T17:22:18.078Z,57.94
2023-03-13T17:24:19.629Z,58.51
2023-03-13T17:26:24.389Z,59.43
2023-03-13T17:28:27.406Z,60.35
2023-03-13T17:30:31.039Z,60.02
2023-03-13T17:32:32.680Z,59.85
2023-03-13T17:34:34.294Z,60.48
2023-03-13T17:36:36.418Z,59.20
2023-03-13T17:38:38.087Z,58.58
2023-03-13T17:40:39.614Z,59.26
2023-03-13T17:42:41.166Z,59.79
2023-03-13T17:44:44.108Z,59.31
2023-03-13T17:46:49.464Z,59.25
2023-03-13T17:48:52.746Z,60.03
2023-03-13T17:50:54.352Z,59.87
2023-03-13T17:52:56.128Z,59.86
2023-03-13T17:54:57.723Z,60.25
2023-03-13T17:56:59.405Z,60.22
2023-03-13T17:59:01.175Z,60.32
2023-03-13T18:01:04.441Z,61.30
2023-03-13T18:03:06.433Z,60.64
2023-03-13T18:05:08.718Z,61.96
2023-03-13T18:07:21.156Z,61.49
2023-03-13T18:09:22.901Z,62.16
2023-03-13T18:11:26.120Z,61.50
2023-03-13T18:13:27.676Z,61.78
2023-03-13T18:15:29.242Z,62.51
2023-03-13T18:17:32.130Z,61.53
2023-03-13T18:19:33.716Z,61.69
2023-03-13T18:21:35.461Z,61.84
2023-03-13T18:23:37.006Z,60.98
2023-03-13T18:25:38.606Z,60.41
2023-03-13T18:27:40.574Z,60.38
2023-03-13T18:29:42.583Z,60.21
2023-03-13T18:31:44.263Z,60.19
2023-03-13T18:33:48.044Z,60.28
2023-03-13T18:35:49.762Z,59.12
2023-03-13T18:37:51.396Z,58.34
2023-03-13T18:39:53.178Z,60.16
2023-03-13T18:41:54.770Z,61.14
2023-03-13T18:43:56.286Z,60.44
2023-03-13T18:45:57.987Z,59.63
2023-03-13T18:47:59.507Z,60.40
2023-03-13T18:50:02.386Z,59.61
2023-03-13T18:52:04.316Z,59.83
2023-03-13T18:54:05.887Z,61.24
2023-03-13T18:56:15.293Z,60.98
2023-03-13T18:58:16.946Z,60.99
2023-03-13T19:00:20.551Z,61.41
2023-03-13T19:02:22.185Z,60.68
2023-03-13T19:04:23.879Z,60.69
2023-03-13T19:06:28.230Z,60.77
2023-03-13T19:08:29.785Z,60.69
2023-03-13T19:10:33.341Z,61.37
2023-03-13T19:12:34.918Z,61.82
2023-03-13T19:14:36.464Z,60.78
2023-03-13T19:16:42.819Z,60.71
2023-03-13T19:18:45.150Z,61.61
2023-03-13T19:20:52.737Z,63.20
2023-03-13T19:22:56.342Z,62.28
2023-03-13T19:24:57.925Z,61.12
2023-03-13T19:26:59.605Z,60.94
2023-03-13T19:29:01.329Z,60.55
2023-03-13T19:31:02.911Z,60.53
2023-03-13T19:33:04.517Z,60.32
2023-03-13T19:35:07.182Z,60.86
2023-03-13T19:37:10.509Z,61.01
2023-03-13T19:39:16.147Z,61.57
2023-03-13T19:41:17.634Z,63.17
2023-03-13T19:43:19.261Z,62.84
2023-03-13T19:45:21.223Z,62.62
2023-03-13T19:47:22.958Z,62.59
2023-03-13T19:49:24.491Z,62.97
2023-03-13T19:51:27.468Z,62.83
2023-03-13T19:53:29.500Z,62.54
2023-03-13T19:55:32.546Z,63.18
2023-03-13T19:57:34.124Z,62.51
2023-03-13T19:59:35.696Z,62.59
2023-03-13T20:01:37.355Z,61.95
2023-03-13T20:03:39.289Z,63.46
2023-03-13T20:05:40.897Z,64.37
2023-03-13T20:07:42.451Z,63.28
2023-03-13T20:09:44.050Z,62.21
2023-03-13T20:11:47.388Z,64.07
2023-03-13T20:13:49.636Z,66.29
2023-03-13T20:15:51.225Z,63.54
2023-03-13T20:17:53.044Z,64.56
2023-03-13T20:19:54.655Z,63.44
2023-03-13T20:21:57.895Z,63.72
2023-03-13T20:24:00.054Z,62.81
2023-03-13T20:26:09.198Z,64.23
2023-03-13T20:28:12.501Z,62.43
2023-03-13T20:30:14.322Z,62.82
2023-03-13T20:32:15.918Z,62.42
2023-03-13T20:34:17.478Z,62.31
2023-03-13T20:36:20.524Z,62.43
2023-03-13T20:38:22.108Z,62.19
2023-03-13T20:40:23.702Z,62.84
2023-03-13T20:42:25.309Z,62.76
2023-03-13T20:44:28.517Z,62.21
2023-03-13T20:46:30.105Z,62.03
2023-03-13T20:48:32.148Z,62.62
2023-03-13T20:50:34.728Z,62.19
2023-03-13T20:52:39.281Z,62.52
2023-03-13T20:54:40.961Z,62.67
2023-03-13T20:56:42.541Z,62.29
2023-03-13T20:58:44.089Z,62.37
2023-03-13T21:00:47.708Z,62.34
2023-03-13T21:02:49.864Z,62.34
2023-03-13T21:04:51.437Z,62.56
2023-03-13T21:06:53.040Z,62.63
2023-03-13T21:08:54.940Z,62.21
2023-03-13T21:10:56.475Z,62.34
2023-03-13T21:12:58.148Z,62.65
2023-03-13T21:14:59.768Z,63.03
2023-03-13T21:17:02.772Z,63.38
2023-03-13T21:19:04.372Z,63.75
2023-03-13T21:21:08.175Z,63.50
2023-03-13T21:23:09.815Z,63.01
2023-03-13T21:25:11.953Z,63.18
2023-03-13T21:27:13.502Z,63.19
2023-03-13T21:29:15.148Z,64.05
2023-03-13T21:31:18.105Z,63.93
2023-03-13T21:33:21.152Z,64.35
2023-03-13T21:35:23.117Z,64.66
2023-03-13T21:37:31.259Z,64.31
2023-03-13T21:39:33.155Z,64.79
2023-03-13T21:41:35.115Z,64.89
2023-03-13T21:43:36.784Z,64.63
2023-03-13T21:45:38.366Z,64.85
2023-03-13T21:47:40.017Z,64.57
2023-03-13T21:49:52.493Z,64.77
2023-03-13T21:51:54.476Z,64.57
2023-03-13T21:53:56.348Z,64.37
2023-03-13T21:55:57.956Z,63.99
2023-03-13T21:57:59.554Z,64.02
2023-03-13T22:00:01.247Z,63.84
2023-03-13T22:02:03.153Z,63.80
2023-03-13T22:04:04.845Z,63.76
2023-03-13T22:06:13.275Z,63.84
2023-03-13T22:08:15.220Z,63.66
2023-03-13T22:10:17.091Z,63.50
2023-03-13T22:12:18.750Z,63.34
2023-03-13T22:14:23.528Z,63.38
2023-03-13T22:16:25.258Z,63.34
2023-03-13T22:18:27.002Z,63.31
2023-03-13T22:20:28.760Z,63.55
2023-03-13T22:22:32.169Z,63.49
2023-03-13T22:24:34.031Z,63.78
2023-03-13T22:26:36.193Z,63.80
2023-03-13T22:28:38.006Z,63.45
2023-03-13T22:30:40.161Z,63.09
2023-03-13T22:32:48.116Z,63.21
2023-03-13T22:34:50.261Z,62.78
2023-03-13T22:36:51.911Z,63.30
2023-03-13T22:38:54.845Z,63.92
2023-03-13T22:40:58.180Z,63.84
2023-03-13T22:43:01.778Z,63.52
2023-03-13T22:45:04.461Z,63.33
2023-03-13T22:47:06.297Z,62.92
2023-03-13T22:49:07.869Z,62.40
2023-03-13T22:51:11.656Z,63.16
2023-03-13T22:53:14.059Z,62.73
2023-03-13T22:55:18.583Z,62.71
2023-03-13T22:57:20.240Z,62.63
2023-03-13T22:59:21.891Z,62.52
2023-03-13T23:01:23.519Z,62.12
2023-03-13T23:03:25.159Z,62.02
2023-03-13T23:05:26.728Z,62.06
2023-03-13T23:07:29.967Z,61.88
2023-03-13T23:09:34.657Z,61.76
2023-03-13T23:11:37.842Z,61.70
2023-03-13T23:13:39.721Z,61.80
2023-03-13T23:15:57.438Z,61.36
2023-03-13T23:18:05.594Z,61.67
2023-03-13T23:20:08.437Z,62.09
2023-03-13T23:22:10.045Z,62.05
2023-03-13T23:24:11.997Z,62.03
2023-03-13T23:26:15.674Z,62.22
2023-03-13T23:28:18.609Z,62.21
2023-03-13T23:30:20.715Z,61.98
2023-03-13T23:32:22.272Z,62.14
2023-03-13T23:34:24.072Z,62.18
2023-03-13T23:36:26.040Z,62.17
2023-03-13T23:38:27.538Z,61.99
2023-03-13T23:40:29.154Z,61.69
2023-03-13T23:42:30.720Z,61.98
2023-03-13T23:44:33.658Z,61.47
2023-03-13T23:46:35.272Z,61.34
2023-03-13T23:48:36.829Z,61.58
2023-03-13T23:50:38.451Z,61.80
2023-03-13T23:52:40.784Z,61.57
2023-03-13T23:54:42.317Z,61.09
2023-03-13T23:56:43.976Z,61.07
2023-03-13T23:58:45.755Z,60.92
